sensor_id;sensor_type;location;lat;lon;timestamp;P1;durP1;ratioP1;P2;durP2;ratioP2
80425;SDS011;69766;51.476;5.704;2023-05-07T00:00:48;29.35;;;18.55;;
80425;SDS011;69766;51.476;5.704;2023-05-07T00:03:14;28.52;;;19.40;;
80425;SDS011;69766;51.476;5.704;2023-05-07T00:05:40;26.85;;;17.80;;
80425;SDS011;69766;51.476;5.704;2023-05-07T00:08:06;26.20;;;17.15;;
80425;SDS011;69766;51.476;5.704;2023-05-07T00:10:32;28.45;;;17.65;;
80425;SDS011;69766;51.476;5.704;2023-05-07T00:12:57;28.27;;;17.30;;
80425;SDS011;69766;51.476;5.704;2023-05-07T00:15:23;24.15;;;16.35;;
80425;SDS011;69766;51.476;5.704;2023-05-07T00:17:49;24.25;;;18.10;;
80425;SDS011;69766;51.476;5.704;2023-05-07T00:20:14;23.85;;;16.50;;
80425;SDS011;69766;51.476;5.704;2023-05-07T00:22:43;22.65;;;16.38;;
80425;SDS011;69766;51.476;5.704;2023-05-07T00:25:09;24.80;;;17.00;;
80425;SDS011;69766;51.476;5.704;2023-05-07T00:27:35;24.88;;;16.50;;
80425;SDS011;69766;51.476;5.704;2023-05-07T00:30:01;24.40;;;17.30;;
80425;SDS011;69766;51.476;5.704;2023-05-07T00:32:26;23.50;;;18.05;;
80425;SDS011;69766;51.476;5.704;2023-05-07T00:34:52;23.45;;;17.17;;
80425;SDS011;69766;51.476;5.704;2023-05-07T00:37:18;27.40;;;18.88;;
80425;SDS011;69766;51.476;5.704;2023-05-07T00:39:44;28.67;;;19.77;;
80425;SDS011;69766;51.476;5.704;2023-05-07T00:42:10;25.40;;;19.20;;
80425;SDS011;69766;51.476;5.704;2023-05-07T00:44:35;26.52;;;18.52;;
80425;SDS011;69766;51.476;5.704;2023-05-07T00:47:02;25.67;;;18.45;;
80425;SDS011;69766;51.476;5.704;2023-05-07T00:49:35;24.67;;;17.33;;
80425;SDS011;69766;51.476;5.704;2023-05-07T00:52:15;24.35;;;18.23;;
80425;SDS011;69766;51.476;5.704;2023-05-07T00:54:47;27.00;;;17.52;;
80425;SDS011;69766;51.476;5.704;2023-05-07T00:57:13;24.92;;;18.38;;
80425;SDS011;69766;51.476;5.704;2023-05-07T00:59:40;25.58;;;18.60;;
80425;SDS011;69766;51.476;5.704;2023-05-07T01:02:06;24.17;;;18.77;;
80425;SDS011;69766;51.476;5.704;2023-05-07T01:04:32;30.13;;;21.38;;
80425;SDS011;69766;51.476;5.704;2023-05-07T01:07:01;31.30;;;20.75;;
80425;SDS011;69766;51.476;5.704;2023-05-07T01:09:28;31.90;;;21.58;;
80425;SDS011;69766;51.476;5.704;2023-05-07T01:11:54;34.53;;;22.77;;
80425;SDS011;69766;51.476;5.704;2023-05-07T01:14:22;31.90;;;22.48;;
80425;SDS011;69766;51.476;5.704;2023-05-07T01:16:48;32.10;;;21.88;;
80425;SDS011;69766;51.476;5.704;2023-05-07T01:19:18;28.13;;;21.02;;
80425;SDS011;69766;51.476;5.704;2023-05-07T01:21:48;29.45;;;21.00;;
80425;SDS011;69766;51.476;5.704;2023-05-07T01:24:14;29.38;;;21.92;;
80425;SDS011;69766;51.476;5.704;2023-05-07T01:26:42;28.60;;;21.73;;
80425;SDS011;69766;51.476;5.704;2023-05-07T01:29:15;29.55;;;21.95;;
80425;SDS011;69766;51.476;5.704;2023-05-07T01:31:43;27.13;;;20.92;;
80425;SDS011;69766;51.476;5.704;2023-05-07T01:34:09;27.85;;;21.33;;
80425;SDS011;69766;51.476;5.704;2023-05-07T01:36:38;28.02;;;21.25;;
80425;SDS011;69766;51.476;5.704;2023-05-07T01:39:05;29.50;;;21.67;;
80425;SDS011;69766;51.476;5.704;2023-05-07T01:41:31;31.95;;;21.48;;
80425;SDS011;69766;51.476;5.704;2023-05-07T01:43:57;31.38;;;23.27;;
80425;SDS011;69766;51.476;5.704;2023-05-07T01:46:24;34.58;;;23.05;;
80425;SDS011;69766;51.476;5.704;2023-05-07T01:48:54;31.85;;;22.05;;
80425;SDS011;69766;51.476;5.704;2023-05-07T01:51:23;35.28;;;24.08;;
80425;SDS011;69766;51.476;5.704;2023-05-07T01:53:49;33.75;;;24.77;;
80425;SDS011;69766;51.476;5.704;2023-05-07T01:56:19;33.13;;;24.73;;
80425;SDS011;69766;51.476;5.704;2023-05-07T01:58:45;33.45;;;24.15;;
80425;SDS011;69766;51.476;5.704;2023-05-07T02:01:12;34.78;;;24.33;;
80425;SDS011;69766;51.476;5.704;2023-05-07T02:03:38;44.83;;;30.30;;
80425;SDS011;69766;51.476;5.704;2023-05-07T02:06:04;46.92;;;32.17;;
80425;SDS011;69766;51.476;5.704;2023-05-07T02:08:39;51.60;;;31.48;;
80425;SDS011;69766;51.476;5.704;2023-05-07T02:11:05;43.85;;;30.17;;
80425;SDS011;69766;51.476;5.704;2023-05-07T02:13:31;46.72;;;29.73;;
80425;SDS011;69766;51.476;5.704;2023-05-07T02:15:58;41.85;;;28.67;;
80425;SDS011;69766;51.476;5.704;2023-05-07T02:18:27;41.15;;;28.60;;
80425;SDS011;69766;51.476;5.704;2023-05-07T02:20:55;43.22;;;29.50;;
80425;SDS011;69766;51.476;5.704;2023-05-07T02:23:21;42.22;;;28.70;;
80425;SDS011;69766;51.476;5.704;2023-05-07T02:25:47;44.08;;;30.25;;
80425;SDS011;69766;51.476;5.704;2023-05-07T02:28:12;40.50;;;28.42;;
80425;SDS011;69766;51.476;5.704;2023-05-07T02:30:38;42.65;;;28.85;;
80425;SDS011;69766;51.476;5.704;2023-05-07T02:33:05;44.55;;;29.30;;
80425;SDS011;69766;51.476;5.704;2023-05-07T02:35:32;38.20;;;27.83;;
80425;SDS011;69766;51.476;5.704;2023-05-07T02:37:57;45.75;;;30.33;;
80425;SDS011;69766;51.476;5.704;2023-05-07T02:40:23;41.55;;;29.08;;
80425;SDS011;69766;51.476;5.704;2023-05-07T02:42:49;42.50;;;30.13;;
80425;SDS011;69766;51.476;5.704;2023-05-07T02:45:15;44.88;;;30.60;;
80425;SDS011;69766;51.476;5.704;2023-05-07T02:47:40;40.65;;;28.27;;
80425;SDS011;69766;51.476;5.704;2023-05-07T02:50:06;42.42;;;29.63;;
80425;SDS011;69766;51.476;5.704;2023-05-07T02:52:32;43.58;;;29.38;;
80425;SDS011;69766;51.476;5.704;2023-05-07T02:54:58;48.30;;;32.22;;
80425;SDS011;69766;51.476;5.704;2023-05-07T02:57:24;44.47;;;31.10;;
80425;SDS011;69766;51.476;5.704;2023-05-07T02:59:49;48.05;;;30.63;;
80425;SDS011;69766;51.476;5.704;2023-05-07T03:02:18;40.78;;;29.10;;
80425;SDS011;69766;51.476;5.704;2023-05-07T03:04:45;47.00;;;31.88;;
80425;SDS011;69766;51.476;5.704;2023-05-07T03:07:10;42.28;;;30.30;;
80425;SDS011;69766;51.476;5.704;2023-05-07T03:09:36;41.30;;;30.02;;
80425;SDS011;69766;51.476;5.704;2023-05-07T03:12:02;45.53;;;31.73;;
80425;SDS011;69766;51.476;5.704;2023-05-07T03:14:28;39.70;;;30.50;;
80425;SDS011;69766;51.476;5.704;2023-05-07T03:16:54;44.97;;;31.17;;
80425;SDS011;69766;51.476;5.704;2023-05-07T03:19:19;47.40;;;31.10;;
80425;SDS011;69766;51.476;5.704;2023-05-07T03:21:45;46.40;;;33.17;;
80425;SDS011;69766;51.476;5.704;2023-05-07T03:24:11;43.03;;;31.60;;
80425;SDS011;69766;51.476;5.704;2023-05-07T03:26:37;41.67;;;31.05;;
80425;SDS011;69766;51.476;5.704;2023-05-07T03:29:02;47.45;;;31.83;;
80425;SDS011;69766;51.476;5.704;2023-05-07T03:31:28;44.53;;;31.17;;
80425;SDS011;69766;51.476;5.704;2023-05-07T03:33:56;42.90;;;31.08;;
80425;SDS011;69766;51.476;5.704;2023-05-07T03:36:22;46.25;;;31.38;;
80425;SDS011;69766;51.476;5.704;2023-05-07T03:38:48;42.20;;;29.67;;
80425;SDS011;69766;51.476;5.704;2023-05-07T03:41:14;41.00;;;30.67;;
80425;SDS011;69766;51.476;5.704;2023-05-07T03:43:40;47.53;;;32.65;;
80425;SDS011;69766;51.476;5.704;2023-05-07T03:46:06;46.47;;;32.15;;
80425;SDS011;69766;51.476;5.704;2023-05-07T03:48:31;46.83;;;33.15;;
80425;SDS011;69766;51.476;5.704;2023-05-07T03:50:57;46.00;;;31.55;;
80425;SDS011;69766;51.476;5.704;2023-05-07T03:53:23;48.88;;;33.63;;
80425;SDS011;69766;51.476;5.704;2023-05-07T03:55:49;50.75;;;35.53;;
80425;SDS011;69766;51.476;5.704;2023-05-07T03:58:15;50.25;;;34.50;;
80425;SDS011;69766;51.476;5.704;2023-05-07T04:00:47;47.80;;;33.38;;
80425;SDS011;69766;51.476;5.704;2023-05-07T04:03:16;47.72;;;34.30;;
80425;SDS011;69766;51.476;5.704;2023-05-07T04:05:42;47.38;;;31.63;;
80425;SDS011;69766;51.476;5.704;2023-05-07T04:08:11;49.22;;;33.25;;
80425;SDS011;69766;51.476;5.704;2023-05-07T04:10:36;53.72;;;36.00;;
80425;SDS011;69766;51.476;5.704;2023-05-07T04:13:02;51.13;;;33.90;;
80425;SDS011;69766;51.476;5.704;2023-05-07T04:15:28;52.17;;;35.55;;
80425;SDS011;69766;51.476;5.704;2023-05-07T04:17:53;53.28;;;36.15;;
80425;SDS011;69766;51.476;5.704;2023-05-07T04:20:19;47.13;;;34.42;;
80425;SDS011;69766;51.476;5.704;2023-05-07T04:22:45;51.60;;;35.88;;
80425;SDS011;69766;51.476;5.704;2023-05-07T04:25:10;52.17;;;34.50;;
80425;SDS011;69766;51.476;5.704;2023-05-07T04:27:36;56.67;;;36.33;;
80425;SDS011;69766;51.476;5.704;2023-05-07T04:30:02;54.80;;;36.33;;
80425;SDS011;69766;51.476;5.704;2023-05-07T04:32:34;52.45;;;35.53;;
80425;SDS011;69766;51.476;5.704;2023-05-07T04:35:05;52.65;;;34.67;;
80425;SDS011;69766;51.476;5.704;2023-05-07T04:37:32;49.13;;;34.13;;
80425;SDS011;69766;51.476;5.704;2023-05-07T04:39:57;49.65;;;33.65;;
80425;SDS011;69766;51.476;5.704;2023-05-07T04:42:23;48.03;;;33.58;;
80425;SDS011;69766;51.476;5.704;2023-05-07T04:44:53;48.00;;;34.80;;
80425;SDS011;69766;51.476;5.704;2023-05-07T04:47:19;51.65;;;34.85;;
80425;SDS011;69766;51.476;5.704;2023-05-07T04:49:46;47.95;;;32.85;;
80425;SDS011;69766;51.476;5.704;2023-05-07T04:52:12;48.85;;;33.65;;
80425;SDS011;69766;51.476;5.704;2023-05-07T04:54:43;48.08;;;32.55;;
80425;SDS011;69766;51.476;5.704;2023-05-07T04:57:09;45.20;;;31.23;;
80425;SDS011;69766;51.476;5.704;2023-05-07T04:59:35;43.92;;;30.50;;
80425;SDS011;69766;51.476;5.704;2023-05-07T05:02:01;44.35;;;31.60;;
80425;SDS011;69766;51.476;5.704;2023-05-07T05:04:29;40.55;;;29.33;;
80425;SDS011;69766;51.476;5.704;2023-05-07T05:06:54;43.60;;;30.17;;
80425;SDS011;69766;51.476;5.704;2023-05-07T05:09:20;40.90;;;27.90;;
80425;SDS011;69766;51.476;5.704;2023-05-07T05:11:46;41.40;;;28.20;;
80425;SDS011;69766;51.476;5.704;2023-05-07T05:14:12;41.92;;;29.30;;
80425;SDS011;69766;51.476;5.704;2023-05-07T05:16:37;40.20;;;26.95;;
80425;SDS011;69766;51.476;5.704;2023-05-07T05:19:03;37.85;;;27.65;;
80425;SDS011;69766;51.476;5.704;2023-05-07T05:21:29;36.22;;;26.67;;
80425;SDS011;69766;51.476;5.704;2023-05-07T05:23:55;39.15;;;28.40;;
80425;SDS011;69766;51.476;5.704;2023-05-07T05:26:21;38.42;;;29.17;;
80425;SDS011;69766;51.476;5.704;2023-05-07T05:28:47;37.20;;;27.42;;
80425;SDS011;69766;51.476;5.704;2023-05-07T05:31:13;37.33;;;27.85;;
80425;SDS011;69766;51.476;5.704;2023-05-07T05:33:39;39.53;;;29.45;;
80425;SDS011;69766;51.476;5.704;2023-05-07T05:36:05;39.83;;;28.95;;
80425;SDS011;69766;51.476;5.704;2023-05-07T05:38:31;38.38;;;27.83;;
80425;SDS011;69766;51.476;5.704;2023-05-07T05:40:57;38.67;;;28.63;;
80425;SDS011;69766;51.476;5.704;2023-05-07T05:43:23;37.22;;;26.52;;
80425;SDS011;69766;51.476;5.704;2023-05-07T05:45:49;34.40;;;26.13;;
80425;SDS011;69766;51.476;5.704;2023-05-07T05:48:14;32.30;;;25.13;;
80425;SDS011;69766;51.476;5.704;2023-05-07T05:50:41;33.45;;;25.48;;
80425;SDS011;69766;51.476;5.704;2023-05-07T05:53:07;35.58;;;25.95;;
80425;SDS011;69766;51.476;5.704;2023-05-07T05:55:33;34.47;;;26.15;;
80425;SDS011;69766;51.476;5.704;2023-05-07T05:58:00;33.45;;;25.15;;
80425;SDS011;69766;51.476;5.704;2023-05-07T06:00:26;34.08;;;24.05;;
80425;SDS011;69766;51.476;5.704;2023-05-07T06:02:52;32.85;;;23.85;;
80425;SDS011;69766;51.476;5.704;2023-05-07T06:05:18;30.73;;;24.05;;
80425;SDS011;69766;51.476;5.704;2023-05-07T06:07:44;30.10;;;23.92;;
80425;SDS011;69766;51.476;5.704;2023-05-07T06:10:12;33.95;;;24.63;;
80425;SDS011;69766;51.476;5.704;2023-05-07T06:12:37;35.60;;;24.65;;
80425;SDS011;69766;51.476;5.704;2023-05-07T06:15:03;30.80;;;24.17;;
80425;SDS011;69766;51.476;5.704;2023-05-07T06:17:29;33.22;;;25.20;;
80425;SDS011;69766;51.476;5.704;2023-05-07T06:19:55;34.30;;;24.67;;
80425;SDS011;69766;51.476;5.704;2023-05-07T06:22:21;32.25;;;24.27;;
80425;SDS011;69766;51.476;5.704;2023-05-07T06:24:47;31.95;;;25.77;;
80425;SDS011;69766;51.476;5.704;2023-05-07T06:27:12;33.20;;;22.65;;
80425;SDS011;69766;51.476;5.704;2023-05-07T06:29:38;32.38;;;23.35;;
80425;SDS011;69766;51.476;5.704;2023-05-07T06:32:10;30.05;;;24.52;;
80425;SDS011;69766;51.476;5.704;2023-05-07T06:34:36;23.20;;;19.23;;
80425;SDS011;69766;51.476;5.704;2023-05-07T06:37:02;25.48;;;20.35;;
80425;SDS011;69766;51.476;5.704;2023-05-07T06:39:28;25.85;;;20.38;;
80425;SDS011;69766;51.476;5.704;2023-05-07T06:41:54;22.42;;;18.02;;
80425;SDS011;69766;51.476;5.704;2023-05-07T06:44:19;25.17;;;19.25;;
80425;SDS011;69766;51.476;5.704;2023-05-07T06:46:45;23.65;;;18.52;;
80425;SDS011;69766;51.476;5.704;2023-05-07T06:49:14;29.67;;;20.77;;
80425;SDS011;69766;51.476;5.704;2023-05-07T06:51:40;26.58;;;19.17;;
80425;SDS011;69766;51.476;5.704;2023-05-07T06:54:05;24.95;;;18.30;;
80425;SDS011;69766;51.476;5.704;2023-05-07T06:56:32;26.65;;;18.60;;
80425;SDS011;69766;51.476;5.704;2023-05-07T06:58:59;26.95;;;19.45;;
80425;SDS011;69766;51.476;5.704;2023-05-07T07:01:25;26.55;;;18.88;;
80425;SDS011;69766;51.476;5.704;2023-05-07T07:03:51;25.42;;;19.65;;
80425;SDS011;69766;51.476;5.704;2023-05-07T07:06:16;28.55;;;23.02;;
80425;SDS011;69766;51.476;5.704;2023-05-07T07:08:42;24.95;;;20.75;;
80425;SDS011;69766;51.476;5.704;2023-05-07T07:11:08;25.10;;;19.30;;
80425;SDS011;69766;51.476;5.704;2023-05-07T07:13:37;24.23;;;18.27;;
80425;SDS011;69766;51.476;5.704;2023-05-07T07:16:02;21.30;;;16.65;;
80425;SDS011;69766;51.476;5.704;2023-05-07T07:18:28;21.73;;;16.08;;
80425;SDS011;69766;51.476;5.704;2023-05-07T07:20:54;27.52;;;19.08;;
80425;SDS011;69766;51.476;5.704;2023-05-07T07:23:20;22.88;;;17.23;;
80425;SDS011;69766;51.476;5.704;2023-05-07T07:25:45;20.88;;;15.05;;
80425;SDS011;69766;51.476;5.704;2023-05-07T07:28:11;21.52;;;15.98;;
80425;SDS011;69766;51.476;5.704;2023-05-07T07:30:37;18.38;;;14.32;;
80425;SDS011;69766;51.476;5.704;2023-05-07T07:33:03;17.65;;;14.15;;
80425;SDS011;69766;51.476;5.704;2023-05-07T07:35:30;19.67;;;14.82;;
80425;SDS011;69766;51.476;5.704;2023-05-07T07:37:58;18.88;;;16.02;;
80425;SDS011;69766;51.476;5.704;2023-05-07T07:40:24;18.30;;;13.98;;
80425;SDS011;69766;51.476;5.704;2023-05-07T07:42:51;19.52;;;14.82;;
80425;SDS011;69766;51.476;5.704;2023-05-07T07:45:18;17.38;;;13.48;;
80425;SDS011;69766;51.476;5.704;2023-05-07T07:47:44;18.92;;;14.73;;
80425;SDS011;69766;51.476;5.704;2023-05-07T07:50:10;20.45;;;15.73;;
80425;SDS011;69766;51.476;5.704;2023-05-07T07:52:36;21.10;;;15.35;;
80425;SDS011;69766;51.476;5.704;2023-05-07T07:55:01;20.90;;;15.23;;
80425;SDS011;69766;51.476;5.704;2023-05-07T07:57:28;17.02;;;14.77;;
80425;SDS011;69766;51.476;5.704;2023-05-07T07:59:54;19.05;;;15.90;;
80425;SDS011;69766;51.476;5.704;2023-05-07T08:02:19;23.35;;;15.57;;
80425;SDS011;69766;51.476;5.704;2023-05-07T08:04:45;21.42;;;15.57;;
80425;SDS011;69766;51.476;5.704;2023-05-07T08:07:11;19.35;;;15.30;;
80425;SDS011;69766;51.476;5.704;2023-05-07T08:09:37;21.42;;;15.90;;
80425;SDS011;69766;51.476;5.704;2023-05-07T08:12:04;15.65;;;13.27;;
80425;SDS011;69766;51.476;5.704;2023-05-07T08:14:33;16.52;;;13.30;;
80425;SDS011;69766;51.476;5.704;2023-05-07T08:16:59;18.23;;;12.77;;
80425;SDS011;69766;51.476;5.704;2023-05-07T08:19:25;16.23;;;13.00;;
80425;SDS011;69766;51.476;5.704;2023-05-07T08:21:51;18.27;;;13.23;;
80425;SDS011;69766;51.476;5.704;2023-05-07T08:24:17;16.98;;;12.95;;
80425;SDS011;69766;51.476;5.704;2023-05-07T08:26:43;16.90;;;13.05;;
80425;SDS011;69766;51.476;5.704;2023-05-07T08:29:10;20.40;;;13.43;;
80425;SDS011;69766;51.476;5.704;2023-05-07T08:31:35;18.13;;;13.30;;
80425;SDS011;69766;51.476;5.704;2023-05-07T08:34:03;18.23;;;14.40;;
80425;SDS011;69766;51.476;5.704;2023-05-07T08:36:29;16.48;;;13.15;;
80425;SDS011;69766;51.476;5.704;2023-05-07T08:38:55;17.17;;;13.40;;
80425;SDS011;69766;51.476;5.704;2023-05-07T08:41:21;18.13;;;14.00;;
80425;SDS011;69766;51.476;5.704;2023-05-07T08:43:47;20.00;;;14.20;;
80425;SDS011;69766;51.476;5.704;2023-05-07T08:46:21;17.23;;;13.63;;
80425;SDS011;69766;51.476;5.704;2023-05-07T08:48:50;16.42;;;13.13;;
80425;SDS011;69766;51.476;5.704;2023-05-07T08:51:20;25.33;;;13.70;;
80425;SDS011;69766;51.476;5.704;2023-05-07T08:53:47;18.13;;;13.18;;
80425;SDS011;69766;51.476;5.704;2023-05-07T08:56:13;16.98;;;12.73;;
80425;SDS011;69766;51.476;5.704;2023-05-07T08:58:43;21.10;;;13.00;;
80425;SDS011;69766;51.476;5.704;2023-05-07T09:01:10;15.20;;;13.15;;
80425;SDS011;69766;51.476;5.704;2023-05-07T09:03:41;20.05;;;12.60;;
80425;SDS011;69766;51.476;5.704;2023-05-07T09:06:09;17.30;;;13.05;;
80425;SDS011;69766;51.476;5.704;2023-05-07T09:08:35;15.75;;;11.63;;
80425;SDS011;69766;51.476;5.704;2023-05-07T09:11:01;13.75;;;11.10;;
80425;SDS011;69766;51.476;5.704;2023-05-07T09:13:27;13.52;;;11.55;;
80425;SDS011;69766;51.476;5.704;2023-05-07T09:15:53;15.50;;;11.88;;
80425;SDS011;69766;51.476;5.704;2023-05-07T09:18:20;13.75;;;11.55;;
80425;SDS011;69766;51.476;5.704;2023-05-07T09:20:45;14.75;;;11.98;;
80425;SDS011;69766;51.476;5.704;2023-05-07T09:23:11;15.07;;;11.63;;
80425;SDS011;69766;51.476;5.704;2023-05-07T09:25:37;18.75;;;13.20;;
80425;SDS011;69766;51.476;5.704;2023-05-07T09:28:03;19.38;;;13.48;;
80425;SDS011;69766;51.476;5.704;2023-05-07T09:30:35;17.85;;;13.45;;
80425;SDS011;69766;51.476;5.704;2023-05-07T09:33:01;20.23;;;14.13;;
80425;SDS011;69766;51.476;5.704;2023-05-07T09:35:29;18.55;;;13.57;;
80425;SDS011;69766;51.476;5.704;2023-05-07T09:37:56;17.38;;;13.25;;
80425;SDS011;69766;51.476;5.704;2023-05-07T09:40:23;18.08;;;13.95;;
80425;SDS011;69766;51.476;5.704;2023-05-07T09:42:50;16.30;;;12.93;;
80425;SDS011;69766;51.476;5.704;2023-05-07T09:45:16;17.05;;;12.07;;
80425;SDS011;69766;51.476;5.704;2023-05-07T09:47:53;17.98;;;11.95;;
80425;SDS011;69766;51.476;5.704;2023-05-07T09:50:26;16.35;;;11.43;;
80425;SDS011;69766;51.476;5.704;2023-05-07T09:52:53;15.80;;;10.98;;
80425;SDS011;69766;51.476;5.704;2023-05-07T09:55:21;13.98;;;11.00;;
80425;SDS011;69766;51.476;5.704;2023-05-07T09:57:51;19.77;;;12.60;;
80425;SDS011;69766;51.476;5.704;2023-05-07T10:00:21;16.55;;;12.15;;
80425;SDS011;69766;51.476;5.704;2023-05-07T10:02:48;18.85;;;13.13;;
80425;SDS011;69766;51.476;5.704;2023-05-07T10:05:16;20.70;;;12.00;;
80425;SDS011;69766;51.476;5.704;2023-05-07T10:07:44;15.05;;;11.73;;
80425;SDS011;69766;51.476;5.704;2023-05-07T10:10:10;16.75;;;11.88;;
80425;SDS011;69766;51.476;5.704;2023-05-07T10:12:36;17.52;;;10.88;;
80425;SDS011;69766;51.476;5.704;2023-05-07T10:15:09;14.87;;;10.53;;
80425;SDS011;69766;51.476;5.704;2023-05-07T10:20:01;13.13;;;9.55;;
80425;SDS011;69766;51.476;5.704;2023-05-07T10:22:47;13.10;;;9.95;;
80425;SDS011;69766;51.476;5.704;2023-05-07T10:25:21;12.38;;;9.20;;
80425;SDS011;69766;51.476;5.704;2023-05-07T10:27:50;11.48;;;8.80;;
80425;SDS011;69766;51.476;5.704;2023-05-07T10:33:11;13.20;;;8.57;;
80425;SDS011;69766;51.476;5.704;2023-05-07T10:35:40;11.40;;;7.32;;
80425;SDS011;69766;51.476;5.704;2023-05-07T10:38:08;10.00;;;6.20;;
80425;SDS011;69766;51.476;5.704;2023-05-07T10:40:34;8.07;;;5.65;;
80425;SDS011;69766;51.476;5.704;2023-05-07T10:43:04;9.20;;;6.13;;
80425;SDS011;69766;51.476;5.704;2023-05-07T10:45:31;9.63;;;6.32;;
80425;SDS011;69766;51.476;5.704;2023-05-07T10:50:36;7.75;;;5.80;;
80425;SDS011;69766;51.476;5.704;2023-05-07T10:53:26;8.80;;;5.78;;
80425;SDS011;69766;51.476;5.704;2023-05-07T10:58:43;9.52;;;5.80;;
80425;SDS011;69766;51.476;5.704;2023-05-07T11:01:09;9.63;;;6.28;;
80425;SDS011;69766;51.476;5.704;2023-05-07T11:03:37;8.65;;;5.68;;
80425;SDS011;69766;51.476;5.704;2023-05-07T11:06:39;14.98;;;5.22;;
80425;SDS011;69766;51.476;5.704;2023-05-07T11:09:05;8.43;;;5.05;;
80425;SDS011;69766;51.476;5.704;2023-05-07T11:11:46;8.38;;;5.30;;
80425;SDS011;69766;51.476;5.704;2023-05-07T11:17:11;9.75;;;5.47;;
80425;SDS011;69766;51.476;5.704;2023-05-07T11:19:55;8.93;;;5.43;;
80425;SDS011;69766;51.476;5.704;2023-05-07T11:25:00;7.78;;;5.60;;
80425;SDS011;69766;51.476;5.704;2023-05-07T11:27:26;12.88;;;7.13;;
80425;SDS011;69766;51.476;5.704;2023-05-07T11:29:52;11.30;;;6.85;;
80425;SDS011;69766;51.476;5.704;2023-05-07T11:32:24;11.20;;;7.25;;
80425;SDS011;69766;51.476;5.704;2023-05-07T11:34:52;11.13;;;6.93;;
80425;SDS011;69766;51.476;5.704;2023-05-07T11:37:18;12.85;;;5.65;;
80425;SDS011;69766;51.476;5.704;2023-05-07T11:39:45;10.65;;;5.63;;
80425;SDS011;69766;51.476;5.704;2023-05-07T11:42:33;9.60;;;5.30;;
80425;SDS011;69766;51.476;5.704;2023-05-07T11:44:59;9.05;;;5.25;;
80425;SDS011;69766;51.476;5.704;2023-05-07T11:47:26;8.05;;;4.60;;
80425;SDS011;69766;51.476;5.704;2023-05-07T11:49:55;8.00;;;4.85;;
80425;SDS011;69766;51.476;5.704;2023-05-07T11:52:22;9.43;;;4.63;;
80425;SDS011;69766;51.476;5.704;2023-05-07T11:54:52;8.48;;;4.40;;
80425;SDS011;69766;51.476;5.704;2023-05-07T11:57:19;9.82;;;4.13;;
80425;SDS011;69766;51.476;5.704;2023-05-07T11:59:46;6.55;;;4.03;;
80425;SDS011;69766;51.476;5.704;2023-05-07T12:02:16;9.32;;;4.00;;
80425;SDS011;69766;51.476;5.704;2023-05-07T12:04:43;7.32;;;3.88;;
80425;SDS011;69766;51.476;5.704;2023-05-07T12:07:17;5.80;;;3.75;;
80425;SDS011;69766;51.476;5.704;2023-05-07T12:09:44;7.32;;;3.10;;
80425;SDS011;69766;51.476;5.704;2023-05-07T12:12:10;11.25;;;3.33;;
80425;SDS011;69766;51.476;5.704;2023-05-07T12:14:40;7.15;;;3.65;;
80425;SDS011;69766;51.476;5.704;2023-05-07T12:17:07;8.82;;;3.78;;
80425;SDS011;69766;51.476;5.704;2023-05-07T12:19:34;6.63;;;3.90;;
80425;SDS011;69766;51.476;5.704;2023-05-07T12:22:01;8.20;;;4.25;;
80425;SDS011;69766;51.476;5.704;2023-05-07T12:24:28;8.13;;;4.35;;
80425;SDS011;69766;51.476;5.704;2023-05-07T12:26:54;6.43;;;3.95;;
80425;SDS011;69766;51.476;5.704;2023-05-07T12:29:23;9.38;;;4.25;;
80425;SDS011;69766;51.476;5.704;2023-05-07T12:31:49;9.50;;;4.80;;
80425;SDS011;69766;51.476;5.704;2023-05-07T12:34:15;8.57;;;4.32;;
80425;SDS011;69766;51.476;5.704;2023-05-07T12:36:41;9.07;;;4.55;;
80425;SDS011;69766;51.476;5.704;2023-05-07T12:39:07;7.60;;;3.78;;
80425;SDS011;69766;51.476;5.704;2023-05-07T12:41:53;8.95;;;4.30;;
80425;SDS011;69766;51.476;5.704;2023-05-07T12:44:23;7.68;;;4.40;;
80425;SDS011;69766;51.476;5.704;2023-05-07T12:46:50;8.07;;;4.10;;
80425;SDS011;69766;51.476;5.704;2023-05-07T12:49:17;8.13;;;4.10;;
80425;SDS011;69766;51.476;5.704;2023-05-07T12:51:43;10.93;;;4.40;;
80425;SDS011;69766;51.476;5.704;2023-05-07T12:54:09;7.97;;;4.70;;
80425;SDS011;69766;51.476;5.704;2023-05-07T12:56:38;6.95;;;4.00;;
80425;SDS011;69766;51.476;5.704;2023-05-07T12:59:04;7.93;;;4.47;;
80425;SDS011;69766;51.476;5.704;2023-05-07T13:01:30;10.45;;;5.72;;
80425;SDS011;69766;51.476;5.704;2023-05-07T13:04:02;8.82;;;5.03;;
80425;SDS011;69766;51.476;5.704;2023-05-07T13:08:55;5.65;;;2.92;;
80425;SDS011;69766;51.476;5.704;2023-05-07T13:11:21;8.65;;;2.97;;
80425;SDS011;69766;51.476;5.704;2023-05-07T13:13:47;6.00;;;2.88;;
80425;SDS011;69766;51.476;5.704;2023-05-07T13:16:16;7.47;;;3.70;;
80425;SDS011;69766;51.476;5.704;2023-05-07T13:18:42;8.40;;;3.72;;
80425;SDS011;69766;51.476;5.704;2023-05-07T13:21:10;5.28;;;3.60;;
80425;SDS011;69766;51.476;5.704;2023-05-07T13:23:38;7.30;;;4.15;;
80425;SDS011;69766;51.476;5.704;2023-05-07T13:26:03;7.35;;;3.70;;
80425;SDS011;69766;51.476;5.704;2023-05-07T13:28:29;7.05;;;4.47;;
80425;SDS011;69766;51.476;5.704;2023-05-07T13:30:55;9.98;;;4.07;;
80425;SDS011;69766;51.476;5.704;2023-05-07T13:33:21;9.10;;;4.07;;
80425;SDS011;69766;51.476;5.704;2023-05-07T13:35:47;10.63;;;4.97;;
80425;SDS011;69766;51.476;5.704;2023-05-07T13:38:13;9.80;;;4.20;;
80425;SDS011;69766;51.476;5.704;2023-05-07T13:40:40;8.00;;;4.90;;
80425;SDS011;69766;51.476;5.704;2023-05-07T13:43:06;12.55;;;5.93;;
80425;SDS011;69766;51.476;5.704;2023-05-07T13:45:32;14.95;;;6.97;;
80425;SDS011;69766;51.476;5.704;2023-05-07T13:47:58;11.95;;;5.60;;
80425;SDS011;69766;51.476;5.704;2023-05-07T13:50:24;7.93;;;5.30;;
80425;SDS011;69766;51.476;5.704;2023-05-07T13:52:52;11.35;;;5.53;;
80425;SDS011;69766;51.476;5.704;2023-05-07T13:55:18;13.63;;;6.10;;
80425;SDS011;69766;51.476;5.704;2023-05-07T13:57:46;11.68;;;5.32;;
80425;SDS011;69766;51.476;5.704;2023-05-07T14:00:29;10.65;;;6.40;;
80425;SDS011;69766;51.476;5.704;2023-05-07T14:02:55;12.65;;;5.57;;
80425;SDS011;69766;51.476;5.704;2023-05-07T14:05:24;11.98;;;7.00;;
80425;SDS011;69766;51.476;5.704;2023-05-07T14:07:54;11.75;;;7.20;;
80425;SDS011;69766;51.476;5.704;2023-05-07T14:10:29;13.35;;;6.85;;
80425;SDS011;69766;51.476;5.704;2023-05-07T14:12:56;9.07;;;6.75;;
80425;SDS011;69766;51.476;5.704;2023-05-07T14:15:22;13.02;;;8.00;;
80425;SDS011;69766;51.476;5.704;2023-05-07T14:17:48;15.85;;;10.15;;
80425;SDS011;69766;51.476;5.704;2023-05-07T14:20:14;15.00;;;9.45;;
80425;SDS011;69766;51.476;5.704;2023-05-07T14:22:43;20.75;;;10.27;;
80425;SDS011;69766;51.476;5.704;2023-05-07T14:25:11;16.83;;;9.52;;
80425;SDS011;69766;51.476;5.704;2023-05-07T14:27:52;16.40;;;9.30;;
80425;SDS011;69766;51.476;5.704;2023-05-07T14:30:18;13.82;;;9.23;;
80425;SDS011;69766;51.476;5.704;2023-05-07T14:32:47;12.98;;;7.45;;
80425;SDS011;69766;51.476;5.704;2023-05-07T14:35:13;11.02;;;7.75;;
80425;SDS011;69766;51.476;5.704;2023-05-07T14:37:42;11.95;;;7.53;;
80425;SDS011;69766;51.476;5.704;2023-05-07T14:40:11;10.85;;;6.75;;
80425;SDS011;69766;51.476;5.704;2023-05-07T14:42:38;12.55;;;7.88;;
80425;SDS011;69766;51.476;5.704;2023-05-07T14:45:04;10.68;;;6.82;;
80425;SDS011;69766;51.476;5.704;2023-05-07T14:47:30;9.98;;;6.93;;